sensor_id;sensor_type;location;lat;lon;timestamp;pressure;altitude;pressure_sealevel;temperature;humidity
28628;BME280;15815;46.760;19.604;2023-02-02T00:01:41;100184.31;;;3.27;88.96
28628;BME280;15815;46.760;19.604;2023-02-02T00:04:15;100186.47;;;3.34;89.03
28628;BME280;15815;46.760;19.604;2023-02-02T00:06:40;100201.34;;;3.41;88.72
28628;BME280;15815;46.760;19.604;2023-02-02T00:09:06;100217.28;;;3.45;88.17
28628;BME280;15815;46.760;19.604;2023-02-02T00:11:31;100211.56;;;3.37;88.01
28628;BME280;15815;46.760;19.604;2023-02-02T00:13:57;100222.69;;;3.37;87.88
28628;BME280;15815;46.760;19.604;2023-02-02T00:18:56;100240.50;;;3.36;87.94
28628;BME280;15815;46.760;19.604;2023-02-02T00:21:22;100225.00;;;3.35;88.44
28628;BME280;15815;46.760;19.604;2023-02-02T00:23:48;100221.78;;;3.33;87.69
28628;BME280;15815;46.760;19.604;2023-02-02T00:26:15;100208.97;;;3.45;87.87
28628;BME280;15815;46.760;19.604;2023-02-02T00:28:40;100196.84;;;3.53;86.84
28628;BME280;15815;46.760;19.604;2023-02-02T00:31:06;100186.63;;;3.57;86.88
28628;BME280;15815;46.760;19.604;2023-02-02T00:33:32;100186.34;;;3.62;87.40
28628;BME280;15815;46.760;19.604;2023-02-02T00:35:57;100186.25;;;3.74;85.71
28628;BME280;15815;46.760;19.604;2023-02-02T00:38:23;100170.56;;;3.66;85.83
28628;BME280;15815;46.760;19.604;2023-02-02T00:40:48;100154.44;;;3.56;86.19
28628;BME280;15815;46.760;19.604;2023-02-02T00:43:14;100177.91;;;3.74;86.15
28628;BME280;15815;46.760;19.604;2023-02-02T00:45:40;100148.25;;;3.62;85.74
28628;BME280;15815;46.760;19.604;2023-02-02T00:48:06;100181.19;;;3.80;85.96
28628;BME280;15815;46.760;19.604;2023-02-02T00:50:32;100172.50;;;3.81;85.85
28628;BME280;15815;46.760;19.604;2023-02-02T00:52:58;100166.22;;;3.84;85.62
28628;BME280;15815;46.760;19.604;2023-02-02T00:55:25;100176.63;;;3.87;85.56
28628;BME280;15815;46.760;19.604;2023-02-02T00:57:50;100155.81;;;3.81;85.11
28628;BME280;15815;46.760;19.604;2023-02-02T01:00:22;100183.22;;;3.98;85.76
28628;BME280;15815;46.760;19.604;2023-02-02T01:02:49;100189.59;;;3.99;85.58
28628;BME280;15815;46.760;19.604;2023-02-02T01:05:16;100183.94;;;3.95;85.88
28628;BME280;15815;46.760;19.604;2023-02-02T01:07:42;100165.66;;;3.94;84.86
28628;BME280;15815;46.760;19.604;2023-02-02T01:10:11;100164.72;;;4.06;85.14
28628;BME280;15815;46.760;19.604;2023-02-02T01:12:37;100171.88;;;4.07;84.41
28628;BME280;15815;46.760;19.604;2023-02-02T01:15:03;100159.09;;;4.22;83.12
28628;BME280;15815;46.760;19.604;2023-02-02T01:17:29;100162.81;;;4.29;82.43
28628;BME280;15815;46.760;19.604;2023-02-02T01:19:54;100142.53;;;4.29;82.10
28628;BME280;15815;46.760;19.604;2023-02-02T01:22:20;100139.53;;;4.38;81.73
28628;BME280;15815;46.760;19.604;2023-02-02T01:24:45;100122.50;;;4.39;82.12
28628;BME280;15815;46.760;19.604;2023-02-02T01:27:12;100107.09;;;4.45;81.62
28628;BME280;15815;46.760;19.604;2023-02-02T01:29:40;100110.00;;;4.52;80.60
28628;BME280;15815;46.760;19.604;2023-02-02T01:32:05;100117.63;;;4.55;80.66
28628;BME280;15815;46.760;19.604;2023-02-02T01:34:31;100109.72;;;4.57;80.08
28628;BME280;15815;46.760;19.604;2023-02-02T01:36:57;100115.34;;;4.61;80.42
28628;BME280;15815;46.760;19.604;2023-02-02T01:39:23;100117.75;;;4.62;79.60
28628;BME280;15815;46.760;19.604;2023-02-02T01:41:48;100080.13;;;4.49;80.74
28628;BME280;15815;46.760;19.604;2023-02-02T01:47:19;100081.88;;;4.57;77.16
28628;BME280;15815;46.760;19.604;2023-02-02T01:49:45;100097.88;;;4.64;78.39
28628;BME280;15815;46.760;19.604;2023-02-02T01:52:12;100090.66;;;4.59;78.47
28628;BME280;15815;46.760;19.604;2023-02-02T01:54:47;100101.34;;;4.57;77.73
28628;BME280;15815;46.760;19.604;2023-02-02T01:57:27;100095.22;;;4.48;79.17
28628;BME280;15815;46.760;19.604;2023-02-02T01:59:59;100095.09;;;4.41;79.15
28628;BME280;15815;46.760;19.604;2023-02-02T02:02:26;100106.66;;;4.43;78.71
28628;BME280;15815;46.760;19.604;2023-02-02T02:04:54;100115.88;;;4.47;78.49
28628;BME280;15815;46.760;19.604;2023-02-02T02:07:20;100114.72;;;4.48;79.00
28628;BME280;15815;46.760;19.604;2023-02-02T02:09:47;100091.28;;;4.30;78.60
28628;BME280;15815;46.760;19.604;2023-02-02T02:12:14;100090.13;;;4.31;78.80
28628;BME280;15815;46.760;19.604;2023-02-02T02:14:46;100120.59;;;4.43;78.81
28628;BME280;15815;46.760;19.604;2023-02-02T02:17:32;100132.66;;;4.51;78.10
28628;BME280;15815;46.760;19.604;2023-02-02T02:35:38;100127.59;;;4.37;79.98
28628;BME280;15815;46.760;19.604;2023-02-02T02:38:34;100110.91;;;4.37;80.11
28628;BME280;15815;46.760;19.604;2023-02-02T02:41:07;100124.38;;;4.35;81.07
28628;BME280;15815;46.760;19.604;2023-02-02T02:43:40;100101.09;;;4.24;80.77
28628;BME280;15815;46.760;19.604;2023-02-02T02:46:07;100103.16;;;4.27;81.06
28628;BME280;15815;46.760;19.604;2023-02-02T02:48:34;100114.78;;;4.32;81.11
28628;BME280;15815;46.760;19.604;2023-02-02T02:54:33;100120.41;;;4.36;81.13
28628;BME280;15815;46.760;19.604;2023-02-02T03:00:30;100122.19;;;4.44;80.43
28628;BME280;15815;46.760;19.604;2023-02-02T03:02:41;100134.13;;;4.45;80.40
28628;BME280;15815;46.760;19.604;2023-02-02T03:08:14;100126.16;;;4.43;81.57
28628;BME280;15815;46.760;19.604;2023-02-02T03:10:44;100136.53;;;4.46;81.92
28628;BME280;15815;46.760;19.604;2023-02-02T03:13:12;100130.09;;;4.42;81.96
28628;BME280;15815;46.760;19.604;2023-02-02T03:15:46;100112.06;;;4.36;82.27
28628;BME280;15815;46.760;19.604;2023-02-02T03:18:14;100122.63;;;4.46;82.75
28628;BME280;15815;46.760;19.604;2023-02-02T03:20:42;100104.69;;;4.44;82.92
28628;BME280;15815;46.760;19.604;2023-02-02T03:23:09;100106.28;;;4.45;83.00
28628;BME280;15815;46.760;19.604;2023-02-02T03:25:39;100126.16;;;4.43;83.34
28628;BME280;15815;46.760;19.604;2023-02-02T03:28:05;100136.84;;;4.41;83.83
28628;BME280;15815;46.760;19.604;2023-02-02T03:30:32;100148.34;;;4.40;84.36
28628;BME280;15815;46.760;19.604;2023-02-02T03:32:58;100153.44;;;4.38;85.31
28628;BME280;15815;46.760;19.604;2023-02-02T03:35:24;100160.53;;;4.35;85.79
28628;BME280;15815;46.760;19.604;2023-02-02T03:37:50;100142.41;;;4.22;86.63
28628;BME280;15815;46.760;19.604;2023-02-02T03:40:16;100160.78;;;4.26;86.99
28628;BME280;15815;46.760;19.604;2023-02-02T03:42:42;100145.31;;;4.10;87.94
28628;BME280;15815;46.760;19.604;2023-02-02T03:45:08;100133.56;;;4.16;87.90
28628;BME280;15815;46.760;19.604;2023-02-02T03:47:33;100134.78;;;4.19;88.57
28628;BME280;15815;46.760;19.604;2023-02-02T03:50:01;100130.41;;;4.18;88.62
28628;BME280;15815;46.760;19.604;2023-02-02T03:52:27;100101.19;;;4.08;88.72
28628;BME280;15815;46.760;19.604;2023-02-02T03:54:52;100104.31;;;4.07;88.86
28628;BME280;15815;46.760;19.604;2023-02-02T03:57:19;100091.09;;;4.00;89.11
28628;BME280;15815;46.760;19.604;2023-02-02T03:59:44;100069.56;;;3.97;89.14
28628;BME280;15815;46.760;19.604;2023-02-02T04:02:13;100092.81;;;4.08;89.81
28628;BME280;15815;46.760;19.604;2023-02-02T04:04:40;100111.94;;;4.10;89.23
28628;BME280;15815;46.760;19.604;2023-02-02T04:07:05;100110.31;;;4.09;89.74
28628;BME280;15815;46.760;19.604;2023-02-02T04:09:31;100110.13;;;3.98;89.73
28628;BME280;15815;46.760;19.604;2023-02-02T04:11:57;100144.59;;;4.13;89.79
28628;BME280;15815;46.760;19.604;2023-02-02T04:14:23;100152.03;;;4.09;90.04
28628;BME280;15815;46.760;19.604;2023-02-02T04:16:49;100135.50;;;3.96;89.59
28628;BME280;15815;46.760;19.604;2023-02-02T04:19:15;100134.69;;;3.96;89.51
28628;BME280;15815;46.760;19.604;2023-02-02T04:21:41;100139.38;;;3.92;89.31
28628;BME280;15815;46.760;19.604;2023-02-02T04:24:11;100097.44;;;4.00;89.46
28628;BME280;15815;46.760;19.604;2023-02-02T04:26:38;100104.63;;;4.01;89.42
28628;BME280;15815;46.760;19.604;2023-02-02T04:29:03;100127.31;;;4.03;89.25
28628;BME280;15815;46.760;19.604;2023-02-02T04:31:29;100130.53;;;3.86;89.32
28628;BME280;15815;46.760;19.604;2023-02-02T04:33:58;100132.28;;;3.94;89.59
28628;BME280;15815;46.760;19.604;2023-02-02T04:36:28;100145.75;;;3.92;89.54
28628;BME280;15815;46.760;19.604;2023-02-02T04:38:54;100149.69;;;3.91;89.99
28628;BME280;15815;46.760;19.604;2023-02-02T04:41:21;100144.06;;;3.88;90.05
28628;BME280;15815;46.760;19.604;2023-02-02T04:43:47;100134.31;;;3.78;90.15
28628;BME280;15815;46.760;19.604;2023-02-02T04:46:13;100150.25;;;3.81;91.00
28628;BME280;15815;46.760;19.604;2023-02-02T04:48:39;100147.59;;;3.69;91.16
28628;BME280;15815;46.760;19.604;2023-02-02T04:51:10;100157.19;;;3.71;90.93
28628;BME280;15815;46.760;19.604;2023-02-02T04:53:36;100144.38;;;3.67;91.24
28628;BME280;15815;46.760;19.604;2023-02-02T04:56:07;100145.84;;;3.61;91.07
28628;BME280;15815;46.760;19.604;2023-02-02T04:58:34;100150.41;;;3.53;91.82
28628;BME280;15815;46.760;19.604;2023-02-02T05:01:00;100146.66;;;3.46;92.00
28628;BME280;15815;46.760;19.604;2023-02-02T05:03:26;100121.94;;;3.25;92.21
28628;BME280;15815;46.760;19.604;2023-02-02T05:06:00;100141.75;;;3.23;92.22
28628;BME280;15815;46.760;19.604;2023-02-02T05:08:26;100142.91;;;3.22;92.39
28628;BME280;15815;46.760;19.604;2023-02-02T05:10:51;100150.28;;;3.15;92.61
28628;BME280;15815;46.760;19.604;2023-02-02T05:13:17;100152.50;;;3.09;92.69
28628;BME280;15815;46.760;19.604;2023-02-02T05:15:42;100148.41;;;3.03;92.59
28628;BME280;15815;46.760;19.604;2023-02-02T05:18:11;100141.47;;;2.97;93.46
28628;BME280;15815;46.760;19.604;2023-02-02T05:20:36;100144.16;;;2.93;93.67
28628;BME280;15815;46.760;19.604;2023-02-02T05:23:02;100146.06;;;2.89;93.82
28628;BME280;15815;46.760;19.604;2023-02-02T05:25:31;100150.25;;;2.83;93.66
28628;BME280;15815;46.760;19.604;2023-02-02T05:27:56;100133.56;;;2.67;94.27
28628;BME280;15815;46.760;19.604;2023-02-02T05:30:23;100168.44;;;2.81;94.44
28628;BME280;15815;46.760;19.604;2023-02-02T05:32:48;100149.78;;;2.65;93.93
28628;BME280;15815;46.760;19.604;2023-02-02T05:35:14;100167.22;;;2.66;94.30
28628;BME280;15815;46.760;19.604;2023-02-02T05:37:43;100156.03;;;2.62;93.90
28628;BME280;15815;46.760;19.604;2023-02-02T05:40:09;100169.00;;;2.58;94.02
28628;BME280;15815;46.760;19.604;2023-02-02T05:42:35;100180.47;;;2.57;94.64
28628;BME280;15815;46.760;19.604;2023-02-02T05:45:01;100170.88;;;2.54;94.78
28628;BME280;15815;46.760;19.604;2023-02-02T05:47:27;100169.28;;;2.53;94.88
28628;BME280;15815;46.760;19.604;2023-02-02T05:49:53;100173.31;;;2.56;94.89
28628;BME280;15815;46.760;19.604;2023-02-02T05:52:21;100161.22;;;2.48;94.92
28628;BME280;15815;46.760;19.604;2023-02-02T05:54:47;100159.13;;;2.45;95.16
28628;BME280;15815;46.760;19.604;2023-02-02T05:57:13;100166.84;;;2.52;94.93
28628;BME280;15815;46.760;19.604;2023-02-02T05:59:39;100157.06;;;2.42;95.16
28628;BME280;15815;46.760;19.604;2023-02-02T06:02:04;100161.09;;;2.44;94.96
28628;BME280;15815;46.760;19.604;2023-02-02T06:04:30;100171.28;;;2.40;95.18
28628;BME280;15815;46.760;19.604;2023-02-02T06:06:56;100179.59;;;2.40;95.18
28628;BME280;15815;46.760;19.604;2023-02-02T06:09:21;100178.78;;;2.40;95.42
28628;BME280;15815;46.760;19.604;2023-02-02T06:11:47;100185.84;;;2.37;95.78
28628;BME280;15815;46.760;19.604;2023-02-02T06:14:12;100171.88;;;2.34;95.83
28628;BME280;15815;46.760;19.604;2023-02-02T06:16:38;100185.41;;;2.35;95.47
28628;BME280;15815;46.760;19.604;2023-02-02T06:19:03;100175.47;;;2.34;95.43
28628;BME280;15815;46.760;19.604;2023-02-02T06:21:29;100182.72;;;2.39;95.52
28628;BME280;15815;46.760;19.604;2023-02-02T06:23:54;100192.41;;;2.45;96.10
28628;BME280;15815;46.760;19.604;2023-02-02T06:26:20;100180.16;;;2.46;95.36
28628;BME280;15815;46.760;19.604;2023-02-02T06:28:51;100197.91;;;2.57;94.58
28628;BME280;15815;46.760;19.604;2023-02-02T06:31:17;100208.09;;;2.81;94.09
28628;BME280;15815;46.760;19.604;2023-02-02T06:33:44;100208.22;;;3.16;92.76
28628;BME280;15815;46.760;19.604;2023-02-02T06:36:10;100198.91;;;3.56;91.09
28628;BME280;15815;46.760;19.604;2023-02-02T06:38:35;100168.06;;;3.61;89.60
28628;BME280;15815;46.760;19.604;2023-02-02T06:41:01;100193.03;;;3.92;89.06
28628;BME280;15815;46.760;19.604;2023-02-02T06:43:28;100203.47;;;4.15;88.64
28628;BME280;15815;46.760;19.604;2023-02-02T06:45:57;100199.88;;;4.33;88.40
28628;BME280;15815;46.760;19.604;2023-02-02T06:48:24;100199.28;;;4.63;88.51
28628;BME280;15815;46.760;19.604;2023-02-02T06:50:50;100176.81;;;4.52;87.98
28628;BME280;15815;46.760;19.604;2023-02-02T06:53:15;100203.31;;;4.65;87.18
28628;BME280;15815;46.760;19.604;2023-02-02T06:55:41;100212.69;;;4.77;85.82
28628;BME280;15815;46.760;19.604;2023-02-02T06:58:06;100207.91;;;5.19;84.52
28628;BME280;15815;46.760;19.604;2023-02-02T07:00:32;100218.66;;;5.89;85.53
28628;BME280;15815;46.760;19.604;2023-02-02T07:02:58;100217.94;;;6.53;84.17
28628;BME280;15815;46.760;19.604;2023-02-02T07:05:26;100211.56;;;7.23;83.90
28628;BME280;15815;46.760;19.604;2023-02-02T07:07:52;100237.34;;;7.94;84.09
28628;BME280;15815;46.760;19.604;2023-02-02T07:10:20;100233.41;;;8.64;83.06
28628;BME280;15815;46.760;19.604;2023-02-02T07:12:46;100239.97;;;9.07;82.16
28628;BME280;15815;46.760;19.604;2023-02-02T07:15:12;100232.84;;;9.52;81.53
28628;BME280;15815;46.760;19.604;2023-02-02T07:17:37;100242.47;;;10.05;78.97
28628;BME280;15815;46.760;19.604;2023-02-02T07:20:03;100235.25;;;10.21;80.24
28628;BME280;15815;46.760;19.604;2023-02-02T07:22:29;100243.84;;;10.95;77.14
28628;BME280;15815;46.760;19.604;2023-02-02T07:24:54;100232.44;;;11.20;76.35
28628;BME280;15815;46.760;19.604;2023-02-02T07:27:20;100237.91;;;11.52;76.40
28628;BME280;15815;46.760;19.604;2023-02-02T07:29:46;100220.06;;;11.69;68.83
28628;BME280;15815;46.760;19.604;2023-02-02T07:32:11;100213.09;;;11.88;74.58
28628;BME280;15815;46.760;19.604;2023-02-02T07:34:38;100242.56;;;12.21;68.48
28628;BME280;15815;46.760;19.604;2023-02-02T07:37:04;100254.06;;;12.75;72.94
28628;BME280;15815;46.760;19.604;2023-02-02T07:39:31;100245.59;;;12.75;66.07
28628;BME280;15815;46.760;19.604;2023-02-02T07:41:59;100243.44;;;13.20;66.49
28628;BME280;15815;46.760;19.604;2023-02-02T07:44:25;100257.59;;;13.47;67.58
28628;BME280;15815;46.760;19.604;2023-02-02T07:46:50;100253.22;;;13.92;69.06
28628;BME280;15815;46.760;19.604;2023-02-02T07:49:17;100241.25;;;14.08;66.25
28628;BME280;15815;46.760;19.604;2023-02-02T07:51:43;100245.31;;;14.54;64.28
28628;BME280;15815;46.760;19.604;2023-02-02T07:54:09;100246.84;;;14.59;60.24
28628;BME280;15815;46.760;19.604;2023-02-02T07:56:37;100247.91;;;15.04;60.57
28628;BME280;15815;46.760;19.604;2023-02-02T07:59:04;100257.25;;;15.57;57.70
28628;BME280;15815;46.760;19.604;2023-02-02T08:01:29;100260.75;;;15.65;57.75
28628;BME280;15815;46.760;19.604;2023-02-02T08:03:57;100245.97;;;15.73;55.49
28628;BME280;15815;46.760;19.604;2023-02-02T08:06:37;100237.31;;;15.97;53.08
28628;BME280;15815;46.760;19.604;2023-02-02T08:09:05;100249.16;;;16.24;52.10
28628;BME280;15815;46.760;19.604;2023-02-02T08:11:33;100250.94;;;16.18;52.50
28628;BME280;15815;46.760;19.604;2023-02-02T08:14:01;100254.22;;;16.17;48.35
28628;BME280;15815;46.760;19.604;2023-02-02T08:16:28;100266.97;;;16.70;52.78
28628;BME280;15815;46.760;19.604;2023-02-02T08:18:54;100267.97;;;16.92;49.52
28628;BME280;15815;46.760;19.604;2023-02-02T08:21:20;100257.47;;;17.18;50.37
28628;BME280;15815;46.760;19.604;2023-02-02T08:23:46;100266.72;;;17.35;49.49
28628;BME280;15815;46.760;19.604;2023-02-02T08:26:14;100275.41;;;17.95;50.60
28628;BME280;15815;46.760;19.604;2023-02-02T08:28:41;100280.97;;;17.99;46.91
28628;BME280;15815;46.760;19.604;2023-02-02T08:31:15;100292.44;;;18.20;46.85
28628;BME280;15815;46.760;19.604;2023-02-02T08:33:41;100296.03;;;18.34;48.34
28628;BME280;15815;46.760;19.604;2023-02-02T08:36:10;100297.03;;;18.65;46.69
28628;BME280;15815;46.760;19.604;2023-02-02T08:38:36;100299.56;;;18.85;44.86
28628;BME280;15815;46.760;19.604;2023-02-02T08:41:07;100300.22;;;18.89;41.97
28628;BME280;15815;46.760;19.604;2023-02-02T08:43:34;100314.47;;;18.89;39.86
28628;BME280;15815;46.760;19.604;2023-02-02T08:46:00;100316.38;;;18.70;43.04
28628;BME280;15815;46.760;19.604;2023-02-02T08:48:26;100311.41;;;18.83;43.50
28628;BME280;15815;46.760;19.604;2023-02-02T08:50:56;100310.66;;;19.05;43.03
28628;BME280;15815;46.760;19.604;2023-02-02T08:53:22;100299.25;;;19.05;42.20
28628;BME280;15815;46.760;19.604;2023-02-02T08:56:03;100289.38;;;19.19;38.31
28628;BME280;15815;46.760;19.604;2023-02-02T08:58:30;100292.03;;;19.13;41.37
28628;BME280;15815;46.760;19.604;2023-02-02T09:01:03;100312.75;;;19.13;38.49
28628;BME280;15815;46.760;19.604;2023-02-02T09:03:29;100300.78;;;18.97;40.25
28628;BME280;15815;46.760;19.604;2023-02-02T09:05:55;100287.03;;;19.48;39.89
28628;BME280;15815;46.760;19.604;2023-02-02T09:08:20;100306.91;;;19.61;39.14
28628;BME280;15815;46.760;19.604;2023-02-02T09:10:46;100316.88;;;19.87;39.06
28628;BME280;15815;46.760;19.604;2023-02-02T09:13:11;100318.47;;;19.57;38.30
28628;BME280;15815;46.760;19.604;2023-02-02T09:15:37;100323.75;;;19.68;37.84
28628;BME280;15815;46.760;19.604;2023-02-02T09:18:03;100313.34;;;19.74;38.73
28628;BME280;15815;46.760;19.604;2023-02-02T09:20:31;100315.78;;;19.63;36.20
28628;BME280;15815;46.760;19.604;2023-02-02T09:22:57;100315.00;;;19.93;37.29
28628;BME280;15815;46.760;19.604;2023-02-02T09:25:23;100322.53;;;20.18;37.95
28628;BME280;15815;46.760;19.604;2023-02-02T09:27:49;100311.91;;;20.19;36.60
28628;BME280;15815;46.760;19.604;2023-02-02T09:30:15;100311.13;;;20.18;36.21
28628;BME280;15815;46.760;19.604;2023-02-02T09:33:00;100311.97;;;20.37;37.51
28628;BME280;15815;46.760;19.604;2023-02-02T09:35:42;100320.38;;;20.31;35.53
28628;BME280;15815;46.760;19.604;2023-02-02T09:38:08;100313.03;;;20.21;35.45
28628;BME280;15815;46.760;19.604;2023-02-02T09:40:33;100309.16;;;20.46;35.40
28628;BME280;15815;46.760;19.604;2023-02-02T09:43:13;100293.25;;;20.36;33.82
28628;BME280;15815;46.760;19.604;2023-02-02T09:45:57;100313.28;;;20.54;34.14
28628;BME280;15815;46.760;19.604;2023-02-02T09:48:59;100304.75;;;20.91;33.74
28628;BME280;15815;46.760;19.604;2023-02-02T09:51:29;100311.19;;;21.65;34.44
28628;BME280;15815;46.760;19.604;2023-02-02T09:56:40;100301.44;;;21.11;33.29
28628;BME280;15815;46.760;19.604;2023-02-02T09:59:19;100315.56;;;21.14;33.37
28628;BME280;15815;46.760;19.604;2023-02-02T10:01:52;100305.72;;;20.97;33.37
28628;BME280;15815;46.760;19.604;2023-02-02T10:04:34;100295.56;;;20.96;33.64
28628;BME280;15815;46.760;19.604;2023-02-02T10:07:07;100293.28;;;21.46;33.46
28628;BME280;15815;46.760;19.604;2023-02-02T10:10:31;100306.91;;;21.60;32.06
28628;BME280;15815;46.760;19.604;2023-02-02T10:12:49;100309.44;;;21.67;32.00
28628;BME280;15815;46.760;19.604;2023-02-02T10:15:57;100304.09;;;21.42;31.84
28628;BME280;15815;46.760;19.604;2023-02-02T10:18:41;100314.06;;;21.55;31.97
28628;BME280;15815;46.760;19.604;2023-02-02T10:21:12;100317.63;;;21.14;32.08
28628;BME280;15815;46.760;19.604;2023-02-02T10:23:43;100310.31;;;21.13;31.70
28628;BME280;15815;46.760;19.604;2023-02-02T10:28:57;100312.69;;;20.78;30.57
28628;BME280;15815;46.760;19.604;2023-02-02T10:42:03;100313.59;;;17.56;34.29
28628;BME280;15815;46.760;19.604;2023-02-02T10:44:39;100312.50;;;16.95;34.07
28628;BME280;15815;46.760;19.604;2023-02-02T10:47:10;100315.59;;;16.39;35.22
28628;BME280;15815;46.760;19.604;2023-02-02T10:49:39;100309.16;;;15.90;36.35
28628;BME280;15815;46.760;19.604;2023-02-02T10:52:15;100302.47;;;15.64;36.54
28628;BME280;15815;46.760;19.604;2023-02-02T11:00:18;100297.41;;;15.72;38.79
28628;BME280;15815;46.760;19.604;2023-02-02T11:02:46;100293.53;;;15.82;36.93
28628;BME280;15815;46.760;19.604;2023-02-02T11:05:21;100284.94;;;15.69;37.30
28628;BME280;15815;46.760;19.604;2023-02-02T11:07:48;100276.38;;;16.22;38.03
28628;BME280;15815;46.760;19.604;2023-02-02T11:10:14;100261.56;;;17.05;37.05
28628;BME280;15815;46.760;19.604;2023-02-02T11:12:43;100267.75;;;17.28;36.87
28628;BME280;15815;46.760;19.604;2023-02-02T11:15:42;100278.75;;;16.07;36.78
28628;BME280;15815;46.760;19.604;2023-02-02T11:18:13;100283.75;;;16.93;36.55
28628;BME280;15815;46.760;19.604;2023-02-02T11:20:38;100273.81;;;16.56;37.35
28628;BME280;15815;46.760;19.604;2023-02-02T11:23:04;100280.88;;;16.03;37.53
28628;BME280;15815;46.760;19.604;2023-02-02T11:25:35;100283.88;;;15.80;38.00
28628;BME280;15815;46.760;19.604;2023-02-02T11:28:12;100282.56;;;15.28;38.24
28628;BME280;15815;46.760;19.604;2023-02-02T11:30:39;100274.94;;;14.46;39.23
28628;BME280;15815;46.760;19.604;2023-02-02T11:33:20;100261.25;;;14.64;39.45
28628;BME280;15815;46.760;19.604;2023-02-02T11:35:53;100268.41;;;14.02;39.97
28628;BME280;15815;46.760;19.604;2023-02-02T11:38:19;100268.66;;;13.61;40.30
28628;BME280;15815;46.760;19.604;2023-02-02T11:41:05;100271.91;;;14.57;40.43
28628;BME280;15815;46.760;19.604;2023-02-02T11:43:34;100261.41;;;13.87;41.36
28628;BME280;15815;46.760;19.604;2023-02-02T11:46:04;100263.31;;;13.40;41.07
28628;BME280;15815;46.760;19.604;2023-02-02T11:48:33;100260.16;;;14.35;40.17
28628;BME280;15815;46.760;19.604;2023-02-02T11:51:00;100257.72;;;14.80;40.74
28628;BME280;15815;46.760;19.604;2023-02-02T11:53:38;100262.63;;;15.52;39.96
28628;BME280;15815;46.760;19.604;2023-02-02T11:56:17;100259.78;;;16.04;39.13
28628;BME280;15815;46.760;19.604;2023-02-02T11:58:54;100254.97;;;15.32;38.89
28628;BME280;15815;46.760;19.604;2023-02-02T12:04:01;100256.50;;;13.64;40.52
28628;BME280;15815;46.760;19.604;2023-02-02T12:06:35;100269.97;;;13.26;41.43
28628;BME280;15815;46.760;19.604;2023-02-02T12:09:10;100243.81;;;14.46;40.46
28628;BME280;15815;46.760;19.604;2023-02-02T12:11:59;100246.97;;;14.91;40.21
28628;BME280;15815;46.760;19.604;2023-02-02T12:17:15;100241.19;;;15.34;39.66
28628;BME280;15815;46.760;19.604;2023-02-02T12:33:59;100255.19;;;13.96;40.38
28628;BME280;15815;46.760;19.604;2023-02-02T12:53:34;100279.94;;;11.80;43.33
28628;BME280;15815;46.760;19.604;2023-02-02T13:07:19;100259.06;;;11.08;45.93
28628;BME280;15815;46.760;19.604;2023-02-02T13:10:20;100263.94;;;10.97;46.28
28628;BME280;15815;46.760;19.604;2023-02-02T13:13:24;100251.94;;;10.82;46.74
28628;BME280;15815;46.760;19.604;2023-02-02T13:15:58;100249.94;;;10.79;46.88
28628;BME280;15815;46.760;19.604;2023-02-02T13:18:35;100255.16;;;10.77;46.65
28628;BME280;15815;46.760;19.604;2023-02-02T13:21:05;100259.91;;;10.98;46.93
28628;BME280;15815;46.760;19.604;2023-02-02T13:23:36;100249.72;;;11.22;47.10
28628;BME280;15815;46.760;19.604;2023-02-02T13:26:06;100236.56;;;11.04;47.01
28628;BME280;15815;46.760;19.604;2023-02-02T13:28:42;100247.72;;;11.19;46.85
28628;BME280;15815;46.760;19.604;2023-02-02T13:31:20;100253.78;;;11.17;46.62
28628;BME280;15815;46.760;19.604;2023-02-02T13:33:55;100251.09;;;10.96;46.68
28628;BME280;15815;46.760;19.604;2023-02-02T13:36:29;100276.78;;;10.98;46.90
28628;BME280;15815;46.760;19.604;2023-02-02T13:38:59;100279.22;;;10.89;47.26
28628;BME280;15815;46.760;19.604;2023-02-02T13:41:27;100278.38;;;10.99;47.45
28628;BME280;15815;46.760;19.604;2023-02-02T13:44:02;100278.38;;;10.99;47.63
28628;BME280;15815;46.760;19.604;2023-02-02T13:47:09;100273.16;;;11.01;47.42
28628;BME280;15815;46.760;19.604;2023-02-02T13:49:48;100284.84;;;10.85;46.89
28628;BME280;15815;46.760;19.604;2023-02-02T14:00:22;100292.19;;;10.47;47.75
28628;BME280;15815;46.760;19.604;2023-02-02T14:02:53;100295.41;;;10.35;48.04
28628;BME280;15815;46.760;19.604;2023-02-02T14:05:40;100292.19;;;10.11;48.40
28628;BME280;15815;46.760;19.604;2023-02-02T14:08:15;100291.41;;;9.93;49.05
28628;BME280;15815;46.760;19.604;2023-02-02T14:10:44;100282.13;;;9.53;49.53
28628;BME280;15815;46.760;19.604;2023-02-02T14:13:28;100304.97;;;9.38;50.15
28628;BME280;15815;46.760;19.604;2023-02-02T14:15:59;100305.72;;;9.24;50.85
28628;BME280;15815;46.760;19.604;2023-02-02T14:27:39;100329.31;;;9.09;51.44
28628;BME280;15815;46.760;19.604;2023-02-02T14:37:47;100326.13;;;9.17;51.82
28628;BME280;15815;46.760;19.604;2023-02-02T14:45:22;100349.69;;;9.02;52.49
28628;BME280;15815;46.760;19.604;2023-02-02T14:47:50;100347.25;;;8.97;52.59
28628;BME280;15815;46.760;19.604;2023-02-02T14:50:26;100344.38;;;8.79;53.07
28628;BME280;15815;46.760;19.604;2023-02-02T14:52:57;100344.72;;;8.74;52.57
28628;BME280;15815;46.760;19.604;2023-02-02T14:55:24;100337.41;;;8.52;53.93
28628;BME280;15815;46.760;19.604;2023-02-02T14:57:59;100332.47;;;8.34;53.54
28628;BME280;15815;46.760;19.604;2023-02-02T15:00:29;100345.19;;;8.28;53.71
28628;BME280;15815;46.760;19.604;2023-02-02T15:02:55;100348.69;;;8.18;54.74
28628;BME280;15815;46.760;19.604;2023-02-02T15:05:44;100337.81;;;8.06;54.49
28628;BME280;15815;46.760;19.604;2023-02-02T15:08:25;100342.53;;;7.95;54.79